createdAt,value
2023-05-01T00:01:31.250Z,6.14
2023-05-01T00:03:58.041Z,6.10
2023-05-01T00:06:24.973Z,5.94
2023-05-01T00:08:51.643Z,5.91
2023-05-01T00:11:18.156Z,6.12
2023-05-01T00:13:44.708Z,6.50
2023-05-01T00:16:12.590Z,6.26
2023-05-01T00:18:39.491Z,6.24
2023-05-01T00:21:06.247Z,6.34
2023-05-01T00:23:32.796Z,5.85
2023-05-01T00:25:59.317Z,6.19
2023-05-01T00:28:25.823Z,5.95
2023-05-01T00:30:52.371Z,6.33
2023-05-01T00:33:19.024Z,6.13
2023-05-01T00:35:46.377Z,6.03
2023-05-01T00:38:13.244Z,6.10
2023-05-01T00:40:46.644Z,6.15
2023-05-01T00:43:13.761Z,5.99
2023-05-01T00:45:44.409Z,5.96
2023-05-01T00:48:11.433Z,5.88
2023-05-01T00:50:38.754Z,5.80
2023-05-01T00:53:05.431Z,5.62
2023-05-01T00:55:33.666Z,6.00
2023-05-01T00:58:01.796Z,5.70
2023-05-01T01:00:29.592Z,6.00
2023-05-01T01:02:56.679Z,6.18
2023-05-01T01:05:27.257Z,6.06
2023-05-01T01:08:06.373Z,6.23
2023-05-01T01:10:43.781Z,5.99
2023-05-01T01:13:20.178Z,5.93
2023-05-01T01:16:10.264Z,5.96
2023-05-01T01:18:42.310Z,6.10
2023-05-01T01:21:18.669Z,6.28
2023-05-01T01:24:19.084Z,6.09
2023-05-01T01:27:02.557Z,5.96
2023-05-01T01:29:42.862Z,6.11
2023-05-01T01:32:21.009Z,5.74
2023-05-01T01:35:03.167Z,6.36
2023-05-01T01:37:43.067Z,6.27
2023-05-01T01:40:14.185Z,5.86
2023-05-01T01:43:01.904Z,6.11
2023-05-01T01:45:36.463Z,6.13
2023-05-01T01:48:03.699Z,6.30
2023-05-01T01:50:32.084Z,6.22
2023-05-01T01:53:01.900Z,6.41
2023-05-01T01:55:31.660Z,6.41
2023-05-01T01:57:59.916Z,6.36
2023-05-01T02:00:28.450Z,6.49
2023-05-01T02:02:56.546Z,5.94
2023-05-01T02:05:25.916Z,6.62
2023-05-01T02:07:53.163Z,6.56
2023-05-01T02:10:22.789Z,6.69
2023-05-01T02:12:51.939Z,7.03
2023-05-01T02:15:19.740Z,7.23
2023-05-01T02:17:46.352Z,7.03
2023-05-01T02:20:14.177Z,7.16
2023-05-01T02:22:41.988Z,6.84
2023-05-01T02:25:13.510Z,6.72
2023-05-01T02:27:48.888Z,6.67
2023-05-01T02:30:15.488Z,6.60
2023-05-01T02:32:44.978Z,6.74
2023-05-01T02:35:11.568Z,6.49
2023-05-01T02:37:38.540Z,6.76
2023-05-01T02:40:10.761Z,6.58
2023-05-01T02:42:39.391Z,6.70
2023-05-01T02:45:09.218Z,6.45
2023-05-01T02:47:39.536Z,6.22
2023-05-01T02:50:08.143Z,6.18
2023-05-01T02:52:34.968Z,6.30
2023-05-01T02:55:02.066Z,6.57
2023-05-01T02:57:28.621Z,6.38
2023-05-01T02:59:55.443Z,6.59
2023-05-01T03:02:22.236Z,6.59
2023-05-01T03:04:48.942Z,6.71
2023-05-01T03:07:15.609Z,6.57
2023-05-01T03:09:42.210Z,6.39
2023-05-01T03:12:08.943Z,6.41
2023-05-01T03:14:35.506Z,6.26
2023-05-01T03:17:02.235Z,6.39
2023-05-01T03:19:28.734Z,6.72
2023-05-01T03:21:55.289Z,6.50
2023-05-01T03:24:21.880Z,6.71
2023-05-01T03:26:48.479Z,7.03
2023-05-01T03:29:15.085Z,6.67
2023-05-01T03:31:41.667Z,6.60
2023-05-01T03:34:08.253Z,6.67
2023-05-01T03:36:34.920Z,6.77
2023-05-01T03:39:01.489Z,7.32
2023-05-01T03:41:28.027Z,7.26
2023-05-01T03:43:55.021Z,7.17
2023-05-01T03:46:21.849Z,6.67
2023-05-01T03:48:48.440Z,6.62
2023-05-01T03:51:17.082Z,6.38
2023-05-01T03:53:43.584Z,6.65
2023-05-01T03:56:10.148Z,7.04
2023-05-01T03:58:36.739Z,7.29
2023-05-01T04:01:03.803Z,7.18
2023-05-01T04:03:30.498Z,6.93
2023-05-01T04:05:57.151Z,7.08
2023-05-01T04:08:23.855Z,7.34
2023-05-01T04:10:50.371Z,7.55
2023-05-01T04:13:17.512Z,7.69
2023-05-01T04:15:46.035Z,7.25
2023-05-01T04:18:12.673Z,7.05
2023-05-01T04:20:40.288Z,6.96
2023-05-01T04:23:07.619Z,7.13
2023-05-01T04:25:34.141Z,6.95
2023-05-01T04:28:00.677Z,6.84
2023-05-01T04:30:27.284Z,6.98
2023-05-01T04:32:54.149Z,7.17
2023-05-01T04:35:20.747Z,6.63
2023-05-01T04:37:47.357Z,7.17
2023-05-01T04:40:13.928Z,7.46
2023-05-01T04:42:40.641Z,7.48
2023-05-01T04:45:07.398Z,7.45
2023-05-01T04:47:34.001Z,7.14
2023-05-01T04:50:01.241Z,7.78
2023-05-01T04:52:27.845Z,8.00
2023-05-01T04:54:54.345Z,7.68
2023-05-01T04:57:20.951Z,7.77
2023-05-01T04:59:48.292Z,8.21
2023-05-01T05:02:14.816Z,8.03
2023-05-01T05:04:41.339Z,7.64
2023-05-01T05:07:09.145Z,7.60
2023-05-01T05:09:36.152Z,7.27
2023-05-01T05:12:03.919Z,7.23
2023-05-01T05:14:30.724Z,7.30
2023-05-01T05:16:57.293Z,7.52
2023-05-01T05:19:24.000Z,7.24
2023-05-01T05:21:50.538Z,7.47
2023-05-01T05:24:17.091Z,7.86
2023-05-01T05:26:43.700Z,7.56
2023-05-01T05:29:10.245Z,7.49
2023-05-01T05:31:37.359Z,7.79
2023-05-01T05:34:03.975Z,7.94
2023-05-01T05:36:30.862Z,7.98
2023-05-01T05:38:57.380Z,7.72
2023-05-01T05:41:23.959Z,7.58
2023-05-01T05:43:50.581Z,7.82
2023-05-01T05:46:17.245Z,7.71
2023-05-01T05:48:43.878Z,7.88
2023-05-01T05:51:10.522Z,7.77
2023-05-01T05:53:37.098Z,7.51
2023-05-01T05:56:04.635Z,7.84
2023-05-01T05:58:31.220Z,8.04
2023-05-01T06:00:57.776Z,7.69
2023-05-01T06:03:24.532Z,7.89
2023-05-01T06:05:51.307Z,8.28
2023-05-01T06:08:17.896Z,7.91
2023-05-01T06:10:46.036Z,7.57
2023-05-01T06:13:14.906Z,7.79
2023-05-01T06:15:41.968Z,7.94
2023-05-01T06:18:08.941Z,8.00
2023-05-01T06:20:36.132Z,7.97
2023-05-01T06:23:02.666Z,8.38
2023-05-01T06:25:29.332Z,8.31
2023-05-01T06:27:56.141Z,8.00
2023-05-01T06:30:22.760Z,8.22
2023-05-01T06:32:49.774Z,7.73
2023-05-01T06:35:16.453Z,8.28
2023-05-01T06:37:43.006Z,8.17
2023-05-01T06:40:09.973Z,8.08
2023-05-01T06:42:40.079Z,8.12
2023-05-01T06:45:08.027Z,8.27
2023-05-01T06:47:34.625Z,8.27
2023-05-01T06:50:02.868Z,8.37
2023-05-01T06:52:31.110Z,7.96
2023-05-01T06:54:57.734Z,7.98
2023-05-01T06:57:24.260Z,8.07
2023-05-01T06:59:50.827Z,8.13
2023-05-01T07:02:17.495Z,8.24
2023-05-01T07:04:44.676Z,8.67
2023-05-01T07:07:11.320Z,8.39
2023-05-01T07:09:38.678Z,8.90
2023-05-01T07:12:06.001Z,8.59
2023-05-01T07:14:34.295Z,8.34
2023-05-01T07:17:01.226Z,8.47
2023-05-01T07:19:28.076Z,8.95
2023-05-01T07:21:54.689Z,9.29
2023-05-01T07:24:21.397Z,9.20
2023-05-01T07:26:47.968Z,9.18
2023-05-01T07:29:16.345Z,8.59
2023-05-01T07:31:43.366Z,9.14
2023-05-01T07:34:10.168Z,9.09
2023-05-01T07:36:36.753Z,9.09
2023-05-01T07:39:04.097Z,8.54
2023-05-01T07:41:33.623Z,9.26
2023-05-01T07:44:00.780Z,9.16
2023-05-01T07:46:27.596Z,9.40
2023-05-01T07:48:54.444Z,8.78
2023-05-01T07:51:21.234Z,8.95
2023-05-01T07:53:49.316Z,9.34
2023-05-01T07:56:16.383Z,8.84
2023-05-01T07:58:43.936Z,9.33
2023-05-01T08:01:11.102Z,9.37
2023-05-01T08:03:37.987Z,9.23
2023-05-01T08:06:05.601Z,9.32
2023-05-01T08:08:32.212Z,9.78
2023-05-01T08:10:58.833Z,9.80
2023-05-01T08:13:25.453Z,9.14
2023-05-01T08:15:52.507Z,9.57
2023-05-01T08:18:21.689Z,9.46
2023-05-01T08:20:48.876Z,9.62
2023-05-01T08:23:16.281Z,9.60
2023-05-01T08:25:43.571Z,9.59
2023-05-01T08:28:10.261Z,9.82
2023-05-01T08:30:36.871Z,10.04
2023-05-01T08:33:03.665Z,9.97
2023-05-01T08:35:30.322Z,9.91
2023-05-01T08:37:57.918Z,9.61
2023-05-01T08:40:26.233Z,9.69
2023-05-01T08:42:54.790Z,9.39
2023-05-01T08:45:24.200Z,9.81
2023-05-01T08:47:53.664Z,10.06
2023-05-01T08:50:22.598Z,10.05
2023-05-01T08:52:52.686Z,9.90
2023-05-01T08:55:19.709Z,9.86
2023-05-01T08:57:47.373Z,9.38
2023-05-01T09:00:23.280Z,9.64
2023-05-01T09:02:51.179Z,9.63
2023-05-01T09:05:19.338Z,9.91
2023-05-01T09:07:46.963Z,9.79
2023-05-01T09:10:15.783Z,9.89
2023-05-01T09:12:46.134Z,10.05
2023-05-01T09:15:13.242Z,9.62
2023-05-01T09:17:40.340Z,9.79
2023-05-01T09:20:07.705Z,9.87
2023-05-01T09:22:35.110Z,10.65
2023-05-01T09:25:02.151Z,10.37
2023-05-01T09:27:29.659Z,10.60
2023-05-01T09:29:56.482Z,10.49
2023-05-01T09:32:26.273Z,10.36
2023-05-01T09:34:53.463Z,9.87
2023-05-01T09:37:31.207Z,9.87
2023-05-01T09:40:10.187Z,9.89
2023-05-01T09:42:39.379Z,9.24
2023-05-01T09:45:13.224Z,9.05
2023-05-01T09:47:39.997Z,8.67
2023-05-01T09:50:07.199Z,8.88
2023-05-01T09:52:33.919Z,9.11
2023-05-01T09:55:17.027Z,8.88
2023-05-01T09:57:45.315Z,7.86
2023-05-01T10:00:16.865Z,7.77
2023-05-01T10:02:46.011Z,7.55
2023-05-01T10:05:14.016Z,7.71
2023-05-01T10:07:57.250Z,7.92
2023-05-01T10:10:24.167Z,7.52
2023-05-01T10:12:50.871Z,7.23
2023-05-01T10:15:25.516Z,7.77
2023-05-01T10:17:54.385Z,7.85
2023-05-01T10:20:21.706Z,7.60
2023-05-01T10:22:49.042Z,7.81
2023-05-01T10:25:17.901Z,7.82
2023-05-01T10:27:44.759Z,8.04
2023-05-01T10:30:11.561Z,7.81
2023-05-01T10:32:41.228Z,7.96
2023-05-01T10:35:28.043Z,7.78
2023-05-01T10:38:01.906Z,7.47
2023-05-01T10:40:43.375Z,7.46
2023-05-01T10:43:15.841Z,7.32
2023-05-01T10:45:47.333Z,6.93
2023-05-01T10:48:47.692Z,6.21
2023-05-01T10:51:24.355Z,6.77
2023-05-01T10:54:12.451Z,6.41
2023-05-01T10:56:38.910Z,6.22
2023-05-01T10:59:06.373Z,6.82
2023-05-01T11:01:35.500Z,6.63
2023-05-01T11:04:04.396Z,6.42
2023-05-01T11:06:31.748Z,6.52
2023-05-01T11:08:59.161Z,7.05
2023-05-01T11:11:25.915Z,6.47
2023-05-01T11:13:59.809Z,5.86
2023-05-01T11:16:41.936Z,6.15
2023-05-01T11:19:10.903Z,6.12
2023-05-01T11:21:39.007Z,6.41
2023-05-01T11:24:06.857Z,6.84
2023-05-01T11:26:42.223Z,6.44
2023-05-01T11:29:10.716Z,6.33
2023-05-01T11:31:38.543Z,6.51
2023-05-01T11:34:08.797Z,6.64
2023-05-01T11:36:52.049Z,7.02
2023-05-01T11:39:19.444Z,6.78
2023-05-01T11:41:46.733Z,6.54
2023-05-01T11:44:16.352Z,6.61
2023-05-01T11:46:43.027Z,6.45
2023-05-01T11:49:11.701Z,5.79
2023-05-01T11:51:38.428Z,5.87
2023-05-01T11:54:07.407Z,6.15
2023-05-01T11:56:35.323Z,6.20
2023-05-01T11:59:16.442Z,5.92
2023-05-01T12:01:45.427Z,6.31
2023-05-01T12:04:13.832Z,6.27
2023-05-01T12:06:45.943Z,6.03
2023-05-01T12:09:23.629Z,6.70
2023-05-01T12:11:52.714Z,6.24
2023-05-01T12:14:21.636Z,6.62
2023-05-01T12:16:49.268Z,6.64
2023-05-01T12:19:18.147Z,6.76
2023-05-01T12:21:44.848Z,6.78
2023-05-01T12:24:16.850Z,6.71
2023-05-01T12:26:44.153Z,6.78
2023-05-01T12:29:11.260Z,7.26
2023-05-01T12:31:46.896Z,7.30
2023-05-01T12:34:13.572Z,8.25
2023-05-01T12:36:40.124Z,8.85
2023-05-01T12:39:09.030Z,9.15
2023-05-01T12:41:44.336Z,9.19
2023-05-01T12:44:24.918Z,9.39
2023-05-01T12:46:57.504Z,9.72
2023-05-01T12:49:24.307Z,9.23
2023-05-01T12:51:52.977Z,8.67
2023-05-01T12:54:29.576Z,8.48
2023-05-01T12:57:17.868Z,8.57
2023-05-01T12:59:46.169Z,8.62
2023-05-01T13:02:16.041Z,8.07
2023-05-01T13:04:48.889Z,7.76
2023-05-01T13:07:17.641Z,8.10
2023-05-01T13:09:55.540Z,8.20
2023-05-01T13:12:22.888Z,7.81
2023-05-01T13:14:50.786Z,7.61
2023-05-01T13:17:29.205Z,7.52
2023-05-01T13:19:58.651Z,8.03
2023-05-01T13:22:37.489Z,6.84
2023-05-01T13:25:10.065Z,6.69
2023-05-01T13:27:37.204Z,6.81
2023-05-01T13:30:04.041Z,7.29
2023-05-01T13:32:31.790Z,8.34
2023-05-01T13:35:00.926Z,9.08
2023-05-01T13:37:28.336Z,8.49
2023-05-01T13:40:00.492Z,7.86
2023-05-01T13:42:27.323Z,7.33
2023-05-01T13:44:56.617Z,6.59
2023-05-01T13:47:27.487Z,6.89
2023-05-01T13:49:54.724Z,7.30
2023-05-01T13:52:21.464Z,6.97
2023-05-01T13:54:48.628Z,7.33
2023-05-01T13:57:18.507Z,7.59
2023-05-01T13:59:47.039Z,6.77
2023-05-01T14:02:23.104Z,6.96
2023-05-01T14:04:49.775Z,6.96
2023-05-01T14:07:21.402Z,6.86
2023-05-01T14:09:58.440Z,6.61
2023-05-01T14:12:30.230Z,6.50
2023-05-01T14:14:57.774Z,6.57
2023-05-01T14:17:32.480Z,6.25
2023-05-01T14:19:59.331Z,6.33
2023-05-01T14:22:29.474Z,6.49
2023-05-01T14:24:56.090Z,6.71
2023-05-01T14:27:22.770Z,6.44
2023-05-01T14:29:49.655Z,6.58
2023-05-01T14:32:16.277Z,6.88
2023-05-01T14:34:43.031Z,6.70
2023-05-01T14:37:10.050Z,6.79
2023-05-01T14:39:36.688Z,6.62
2023-05-01T14:42:04.947Z,6.47
2023-05-01T14:44:31.532Z,6.16
2023-05-01T14:46:59.238Z,5.78
2023-05-01T14:49:26.075Z,5.18
2023-05-01T14:51:54.019Z,5.53
2023-05-01T14:54:21.170Z,5.40
2023-05-01T14:56:48.677Z,5.89
2023-05-01T14:59:16.279Z,6.05
2023-05-01T15:01:44.064Z,6.16
2023-05-01T15:04:11.766Z,6.47
2023-05-01T15:06:38.617Z,6.83
2023-05-01T15:09:05.410Z,6.33
2023-05-01T15:11:32.004Z,6.37
2023-05-01T15:13:59.106Z,6.93
2023-05-01T15:16:26.106Z,7.06
2023-05-01T15:18:52.747Z,7.03
2023-05-01T15:21:19.294Z,7.81
2023-05-01T15:23:46.051Z,7.52
2023-05-01T15:26:12.567Z,7.79
2023-05-01T15:28:39.109Z,8.13
2023-05-01T15:31:05.918Z,8.46
2023-05-01T15:33:32.551Z,8.64
2023-05-01T15:35:59.191Z,8.82
2023-05-01T15:38:27.182Z,8.63
2023-05-01T15:40:53.924Z,8.42
2023-05-01T15:43:22.267Z,8.25
2023-05-01T15:45:49.728Z,8.23
2023-05-01T15:48:16.424Z,8.50
2023-05-01T15:50:42.989Z,8.53
2023-05-01T15:53:09.564Z,8.63
2023-05-01T15:55:36.689Z,8.85
2023-05-01T15:58:03.542Z,8.94
2023-05-01T16:00:30.262Z,9.65
2023-05-01T16:02:57.072Z,10.05
2023-05-01T16:05:24.794Z,10.70
2023-05-01T16:07:55.082Z,10.85
2023-05-01T16:10:22.379Z,11.20
2023-05-01T16:12:50.903Z,11.06
2023-05-01T16:15:17.885Z,11.17
2023-05-01T16:17:45.954Z,11.07
2023-05-01T16:20:14.141Z,10.51
2023-05-01T16:22:42.921Z,10.64
2023-05-01T16:25:10.585Z,10.98
2023-05-01T16:27:47.408Z,11.17
2023-05-01T16:30:14.524Z,11.17
2023-05-01T16:32:42.067Z,11.06
2023-05-01T16:35:17.422Z,11.69
2023-05-01T16:37:44.142Z,11.46
2023-05-01T16:40:16.571Z,11.61
2023-05-01T16:42:50.627Z,12.90
2023-05-01T16:45:17.425Z,13.44
2023-05-01T16:47:44.313Z,13.72
2023-05-01T16:50:10.957Z,15.73
2023-05-01T16:52:39.337Z,15.68
2023-05-01T16:55:06.530Z,16.27
2023-05-01T16:57:33.188Z,16.60
2023-05-01T17:00:00.025Z,16.42
2023-05-01T17:02:26.906Z,16.75
2023-05-01T17:04:53.817Z,16.29
2023-05-01T17:07:23.109Z,16.75
2023-05-01T17:09:49.672Z,16.39
2023-05-01T17:12:16.315Z,17.21
2023-05-01T17:14:42.844Z,16.83
2023-05-01T17:17:09.768Z,16.32
2023-05-01T17:19:38.747Z,16.35
2023-05-01T17:22:06.264Z,16.23
2023-05-01T17:24:33.022Z,16.22
2023-05-01T17:26:59.656Z,16.08
2023-05-01T17:29:27.598Z,16.35
2023-05-01T17:31:54.228Z,16.12
2023-05-01T17:34:21.195Z,16.36
2023-05-01T17:36:47.753Z,16.47
2023-05-01T17:39:14.424Z,16.63
2023-05-01T17:41:41.039Z,16.34
2023-05-01T17:44:07.637Z,16.93
2023-05-01T17:46:35.390Z,16.63
2023-05-01T17:49:02.009Z,16.94
2023-05-01T17:51:28.647Z,16.87
2023-05-01T17:54:22.435Z,16.67
2023-05-01T17:56:49.035Z,16.99
2023-05-01T17:59:16.234Z,16.98
2023-05-01T18:01:42.843Z,17.26
2023-05-01T18:04:09.549Z,18.61
2023-05-01T18:06:36.668Z,18.87
2023-05-01T18:09:03.766Z,19.56
2023-05-01T18:11:30.306Z,19.60
2023-05-01T18:13:56.867Z,20.02
2023-05-01T18:16:24.596Z,20.52
2023-05-01T18:18:51.301Z,21.23
2023-05-01T18:21:17.876Z,21.22
2023-05-01T18:23:45.445Z,21.27
2023-05-01T18:26:12.942Z,21.86
2023-05-01T18:28:39.546Z,22.12
2023-05-01T18:31:06.143Z,21.69
2023-05-01T18:33:33.073Z,22.42
2023-05-01T18:35:59.923Z,22.26
2023-05-01T18:38:28.594Z,22.45
2023-05-01T18:40:55.532Z,22.79
2023-05-01T18:43:22.100Z,22.77
2023-05-01T18:45:48.656Z,24.30
2023-05-01T18:48:15.236Z,23.97
2023-05-01T18:50:42.476Z,24.01
2023-05-01T18:53:09.131Z,24.33
2023-05-01T18:55:35.675Z,24.49
2023-05-01T18:58:02.348Z,25.57
2023-05-01T19:00:29.686Z,25.97
2023-05-01T19:02:56.447Z,26.84
2023-05-01T19:05:24.997Z,27.70
2023-05-01T19:07:51.783Z,28.19
2023-05-01T19:10:18.448Z,27.97
2023-05-01T19:12:45.580Z,27.94
2023-05-01T19:15:13.450Z,28.33
2023-05-01T19:17:40.048Z,29.27
2023-05-01T19:20:07.527Z,29.81
2023-05-01T19:22:34.164Z,30.83
2023-05-01T19:25:01.294Z,30.22
2023-05-01T19:27:27.942Z,30.71
2023-05-01T19:29:54.625Z,32.00
2023-05-01T19:32:21.297Z,31.31
2023-05-01T19:34:47.823Z,30.76
2023-05-01T19:37:14.402Z,30.63
2023-05-01T19:39:40.989Z,30.33
2023-05-01T19:42:07.577Z,28.59
2023-05-01T19:44:34.189Z,28.94
2023-05-01T19:47:00.846Z,27.76
2023-05-01T19:49:27.625Z,28.04
2023-05-01T19:51:54.210Z,29.49
2023-05-01T19:54:22.449Z,30.02
2023-05-01T19:56:51.499Z,29.52
2023-05-01T19:59:18.932Z,29.84
2023-05-01T20:01:45.703Z,28.36
2023-05-01T20:04:12.560Z,27.80
2023-05-01T20:06:39.192Z,27.96
2023-05-01T20:09:06.430Z,27.28
2023-05-01T20:11:33.401Z,27.73
2023-05-01T20:14:00.691Z,28.78
2023-05-01T20:16:27.940Z,28.73
2023-05-01T20:18:54.505Z,28.44
2023-05-01T20:21:21.030Z,28.39
2023-05-01T20:23:47.816Z,29.18
2023-05-01T20:26:14.400Z,30.49
2023-05-01T20:28:41.069Z,30.23
2023-05-01T20:31:07.715Z,31.90
2023-05-01T20:33:34.277Z,32.30
2023-05-01T20:36:00.897Z,32.86
2023-05-01T20:38:27.481Z,33.33
2023-05-01T20:40:53.999Z,33.19
2023-05-01T20:43:20.974Z,32.66
2023-05-01T20:45:47.536Z,34.24
2023-05-01T20:48:14.166Z,34.32
2023-05-01T20:50:43.595Z,34.70
2023-05-01T20:53:10.217Z,35.39
2023-05-01T20:55:36.821Z,34.72
2023-05-01T20:58:03.565Z,34.34
2023-05-01T21:00:30.182Z,35.54
2023-05-01T21:02:58.727Z,35.25
2023-05-01T21:05:25.431Z,33.78
2023-05-01T21:07:51.936Z,34.55
2023-05-01T21:10:18.455Z,34.27
2023-05-01T21:12:44.984Z,34.66
2023-05-01T21:15:11.938Z,34.32
2023-05-01T21:17:40.503Z,34.19
2023-05-01T21:20:18.477Z,34.14
2023-05-01T21:22:46.139Z,32.54
2023-05-01T21:25:15.801Z,32.17
2023-05-01T21:27:42.500Z,31.59
2023-05-01T21:30:14.902Z,30.19
2023-05-01T21:32:42.155Z,29.58
2023-05-01T21:35:10.073Z,29.92
2023-05-01T21:37:37.302Z,28.51
2023-05-01T21:40:06.444Z,27.14
2023-05-01T21:42:39.970Z,28.01
2023-05-01T21:45:08.797Z,28.09
2023-05-01T21:47:42.671Z,27.87
2023-05-01T21:50:15.489Z,27.42
2023-05-01T21:52:46.554Z,28.04
2023-05-01T21:55:18.686Z,26.92
2023-05-01T21:57:45.607Z,27.42
2023-05-01T22:00:12.531Z,28.09
2023-05-01T22:02:44.396Z,27.31
2023-05-01T22:05:13.650Z,27.22
2023-05-01T22:07:41.645Z,26.84
2023-05-01T22:10:12.651Z,25.52
2023-05-01T22:12:39.944Z,24.82
2023-05-01T22:15:07.820Z,23.95
2023-05-01T22:17:34.653Z,23.34
2023-05-01T22:20:01.418Z,24.03
2023-05-01T22:22:28.191Z,23.37
2023-05-01T22:24:54.776Z,23.89
2023-05-01T22:27:21.316Z,22.92
2023-05-01T22:29:47.872Z,20.42
2023-05-01T22:32:14.571Z,19.29
2023-05-01T22:34:41.148Z,19.64
2023-05-01T22:37:07.773Z,19.21
2023-05-01T22:39:36.099Z,19.14
2023-05-01T22:42:05.872Z,20.53
2023-05-01T22:44:33.192Z,19.67
2023-05-01T22:46:59.794Z,19.49
2023-05-01T22:49:28.006Z,19.19
2023-05-01T22:51:57.861Z,19.20
2023-05-01T22:54:24.757Z,19.77
2023-05-01T22:56:51.746Z,18.39
2023-05-01T22:59:19.057Z,18.40
2023-05-01T23:01:46.135Z,18.91
2023-05-01T23:04:13.834Z,19.45
2023-05-01T23:06:41.005Z,20.06
2023-05-01T23:09:08.349Z,20.43
2023-05-01T23:11:35.047Z,20.68
2023-05-01T23:14:01.650Z,19.98
2023-05-01T23:16:32.368Z,19.79
2023-05-01T23:18:59.014Z,20.77
2023-05-01T23:21:25.591Z,21.32
2023-05-01T23:23:53.196Z,20.28
2023-05-01T23:26:29.013Z,21.16
2023-05-01T23:28:55.722Z,20.02
2023-05-01T23:31:27.066Z,20.07
2023-05-01T23:33:54.984Z,19.85
2023-05-01T23:36:21.997Z,20.46
2023-05-01T23:38:48.655Z,21.73
2023-05-01T23:41:15.729Z,23.03
2023-05-01T23:43:42.564Z,23.17
2023-05-01T23:46:09.300Z,22.73
2023-05-01T23:48:36.436Z,24.44
2023-05-01T23:51:03.628Z,26.10
2023-05-01T23:53:30.402Z,28.18
2023-05-01T23:55:57.036Z,27.78
2023-05-01T23:58:25.016Z,27.24
